Astrakhan Airport


Codes: URWA/ASF
Name: Astrakhan Airport
City: Astrakhan
Country: Russia
Elevation: -65 ft.
Wikipedia:

Photos at Astrakhan Airport


   Photos courtesy of SpottingLog. You can add your own sightings and photos by signing up for a free trial today.



No photos found.

Weather at Astrakhan Airport


Time (UTC)DescriptionTempratureWindCloud coverageVisibilityPressureHumidity
16-Jun-2024 09:00Clear Sky33°C13 mph, S0%10000m1010hPa35%
16-Jun-2024 12:00Few Clouds34°C16 mph, S22%10000m1010hPa31%
16-Jun-2024 15:00Scattered Clouds33°C11 mph, S29%10000m1010hPa29%
16-Jun-2024 18:00Scattered Clouds27°C7 mph, SE38%10000m1012hPa43%
16-Jun-2024 21:00Scattered Clouds25°C4 mph, SE30%10000m1012hPa48%
17-Jun-2024 00:00Scattered Clouds25°C4 mph, E44%10000m1012hPa49%
17-Jun-2024 03:00Few Clouds28°C4 mph, NE17%10000m1013hPa38%
17-Jun-2024 06:00Few Clouds36°C4 mph, SE12%10000m1012hPa22%
17-Jun-2024 09:00Clear Sky39°C11 mph, SE10%10000m1012hPa17%
17-Jun-2024 12:00Scattered Clouds39°C16 mph, SE48%10000m1012hPa18%
17-Jun-2024 15:00Scattered Clouds36°C13 mph, SE34%10000m1012hPa21%
17-Jun-2024 18:00Few Clouds28°C9 mph, SE23%10000m1013hPa42%
17-Jun-2024 21:00Broken Clouds27°C7 mph, SW69%10000m1013hPa44%
18-Jun-2024 00:00Broken Clouds26°C2 mph, SW84%10000m1013hPa48%
18-Jun-2024 03:00Scattered Clouds29°C2 mph, NE43%10000m1013hPa38%
18-Jun-2024 06:00Scattered Clouds36°C2 mph, SE25%10000m1013hPa22%
18-Jun-2024 09:00Broken Clouds40°C7 mph, SW72%10000m1012hPa16%
18-Jun-2024 12:00Broken Clouds40°C16 mph, S79%10000m1011hPa15%
18-Jun-2024 15:00Overcast Clouds37°C9 mph, S100%10000m1011hPa21%
18-Jun-2024 18:00Broken Clouds26°C16 mph, N67%10000m1013hPa54%
18-Jun-2024 21:00Overcast Clouds26°C4 mph, NE98%10000m1013hPa50%
19-Jun-2024 00:00Overcast Clouds26°C9 mph, N85%10000m1012hPa46%
19-Jun-2024 03:00Broken Clouds28°C9 mph, N72%10000m1012hPa44%
19-Jun-2024 06:00Overcast Clouds32°C11 mph, N86%10000m1013hPa35%
19-Jun-2024 09:00Overcast Clouds34°C9 mph, NW100%10000m1013hPa29%
19-Jun-2024 12:00Overcast Clouds35°C11 mph, N93%10000m1012hPa26%
19-Jun-2024 15:00Clear Sky34°C11 mph, N4%10000m1011hPa27%
19-Jun-2024 18:00Light Rain29°C11 mph, NW8%10000m1011hPa32%
19-Jun-2024 21:00Scattered Clouds28°C9 mph, N29%10000m1011hPa39%
20-Jun-2024 00:00Scattered Clouds26°C7 mph, N47%10000m1011hPa46%
20-Jun-2024 03:00Clear Sky28°C9 mph, N5%10000m1011hPa47%
20-Jun-2024 06:00Few Clouds31°C7 mph, NW22%10000m1011hPa35%
20-Jun-2024 09:00Overcast Clouds34°C11 mph, NW93%10000m1009hPa28%
20-Jun-2024 12:00Broken Clouds35°C13 mph, NW81%10000m1008hPa21%
20-Jun-2024 15:00Clear Sky33°C11 mph, N0%10000m1007hPa24%
20-Jun-2024 18:00Clear Sky29°C4 mph, N1%10000m1007hPa28%
20-Jun-2024 21:00Clear Sky27°C7 mph, S4%10000m1006hPa41%
21-Jun-2024 00:00Few Clouds26°C11 mph, W19%10000m1006hPa46%
21-Jun-2024 03:00Light Rain25°C18 mph, NW81%10000m1007hPa65%
21-Jun-2024 06:00Overcast Clouds24°C20 mph, NW87%10000m1009hPa35%